Time;durP1;ratioP1;P1;durP2;ratioP2;P2;SDS_P1;SDS_P2;PMS_P1;PMS_P2;Temp;Humidity;BMP_temperature;BMP_pressure;BME280_temperature;BME280_humidity;BME280_pressure;Samples;Min_cycle;Max_cycle;Signal;HPM_P1;HPM_P2
2023/02/16 00:01:21;;;;;;;31.77;17.00;;;4.90;99.90;;;;;;5033331;28;20028;-73
2023/02/16 00:03:48;;;;;;;32.28;17.13;;;5.00;99.90;;;;;;5024659;28;20553;-73
2023/02/16 00:06:15;;;;;;;35.15;17.27;;;4.90;99.90;;;;;;5031973;28;20731;-73
2023/02/16 00:08:48;;;;;;;33.58;18.05;;;4.60;99.90;;;;;;5031015;28;20068;-73
2023/02/16 00:14:22;;;;;;;37.22;18.08;;;4.60;99.90;;;;;;5029779;28;20044;-73
2023/02/16 00:16:48;;;;;;;36.42;18.08;;;4.50;99.90;;;;;;5018776;28;20413;-75
2023/02/16 00:19:22;;;;;;;33.05;17.73;;;4.50;99.90;;;;;;5033713;28;20128;-71
2023/02/16 00:21:49;;;;;;;36.70;17.27;;;4.50;99.90;;;;;;5029748;28;20064;-74
2023/02/16 00:24:15;;;;;;;33.92;17.05;;;4.50;99.90;;;;;;5032776;28;20147;-71
2023/02/16 00:26:41;;;;;;;32.90;18.73;;;4.40;99.90;;;;;;5035939;28;20113;-71
2023/02/16 00:29:13;;;;;;;37.70;18.70;;;4.40;99.90;;;;;;5029069;28;20041;-72
2023/02/16 00:31:38;;;;;;;34.45;17.45;;;4.30;99.90;;;;;;5032634;28;20021;-72
2023/02/16 00:34:24;;;;;;;33.37;18.47;;;4.30;99.90;;;;;;5031449;28;20410;-72
2023/02/16 00:36:49;;;;;;;40.47;19.45;;;4.20;99.90;;;;;;5037516;28;20075;-74
2023/02/16 00:39:15;;;;;;;33.27;17.13;;;4.20;99.90;;;;;;5028657;28;20037;-74
2023/02/16 00:41:49;;;;;;;33.03;18.60;;;4.20;99.90;;;;;;5029280;28;20047;-73
2023/02/16 00:44:38;;;;;;;35.58;18.50;;;4.20;99.90;;;;;;5028802;28;20026;-73
2023/02/16 00:47:33;;;;;;;33.65;18.10;;;4.10;99.90;;;;;;5031829;28;20022;-72
2023/02/16 00:49:58;;;;;;;37.88;18.95;;;4.10;99.90;;;;;;5027684;28;20033;-72
2023/02/16 00:52:37;;;;;;;34.57;18.93;;;4.00;99.90;;;;;;5034930;28;20080;-72
2023/02/16 00:55:07;;;;;;;32.40;16.33;;;4.00;99.90;;;;;;5029164;28;20043;-74
2023/02/16 00:57:37;;;;;;;32.28;17.85;;;4.00;99.90;;;;;;5026473;28;20125;-74
2023/02/16 01:00:23;;;;;;;30.02;17.08;;;4.00;99.90;;;;;;5026789;28;20706;-74
2023/02/16 01:02:50;;;;;;;37.53;17.90;;;4.00;99.90;;;;;;5028698;28;20047;-72
2023/02/16 01:05:17;;;;;;;32.60;17.15;;;3.90;99.90;;;;;;5034735;28;20037;-73
2023/02/16 01:13:13;;;;;;;37.78;19.25;;;3.70;99.90;;;;;;5030023;28;20793;-73
2023/02/16 01:15:39;;;;;;;49.08;20.70;;;3.70;99.90;;;;;;5050772;28;20029;-73
2023/02/16 01:18:05;;;;;;;36.63;18.35;;;3.70;99.90;;;;;;5032032;28;20077;-72
2023/02/16 01:20:33;;;;;;;37.60;18.45;;;3.60;99.90;;;;;;5029116;28;20033;-74
2023/02/16 01:22:59;;;;;;;37.50;19.23;;;3.70;99.90;;;;;;5029337;28;20080;-74
2023/02/16 01:25:25;;;;;;;33.83;18.67;;;3.60;99.90;;;;;;5037029;28;20465;-74
2023/02/16 01:27:50;;;;;;;38.67;19.40;;;3.70;99.90;;;;;;5033292;28;20037;-73
2023/02/16 01:30:20;;;;;;;38.13;19.17;;;3.70;99.90;;;;;;5032568;28;20052;-71
2023/02/16 01:32:50;;;;;;;35.83;19.05;;;3.70;99.90;;;;;;5034213;28;20041;-72
2023/02/16 01:35:27;;;;;;;39.67;20.33;;;3.80;99.90;;;;;;5040339;28;20028;-73
2023/02/16 01:37:53;;;;;;;39.38;19.98;;;3.80;99.90;;;;;;5031213;28;20029;-73
2023/02/16 01:40:30;;;;;;;34.95;19.05;;;3.90;99.90;;;;;;5035114;28;20771;-73
2023/02/16 01:43:21;;;;;;;31.08;18.55;;;3.80;99.90;;;;;;5033352;28;20041;-73
2023/02/16 01:46:06;;;;;;;37.05;19.08;;;3.80;99.90;;;;;;5037773;28;20104;-72
2023/02/16 01:48:32;;;;;;;34.60;18.83;;;3.80;99.90;;;;;;5034735;28;20037;-73
2023/02/16 01:51:26;;;;;;;34.53;18.20;;;3.90;99.90;;;;;;5033157;28;20436;-72
2023/02/16 01:53:59;;;;;;;38.88;19.73;;;3.90;99.90;;;;;;5037667;28;20036;-73
2023/02/16 01:56:49;;;;;;;33.22;18.55;;;3.90;99.90;;;;;;5034874;28;20029;-71
2023/02/16 01:59:24;;;;;;;42.50;19.45;;;3.90;99.90;;;;;;5029849;28;20096;-72
2023/02/16 02:01:52;;;;;;;39.17;18.80;;;4.00;99.90;;;;;;5034129;28;20052;-73
2023/02/16 02:07:27;;;;;;;34.85;18.67;;;3.80;99.90;;;;;;5030178;28;20444;-73
2023/02/16 02:10:00;;;;;;;;;;;3.70;99.90;;;;;;5031311;28;20410;-73
2023/02/16 02:12:33;;;;;;;38.72;19.10;;;3.60;99.90;;;;;;5035976;28;20053;-73
2023/02/16 02:14:59;;;;;;;35.55;18.58;;;3.60;99.90;;;;;;5034918;28;20029;-73
2023/02/16 02:17:25;;;;;;;38.93;18.50;;;3.40;99.90;;;;;;5034779;28;20017;-72
2023/02/16 02:20:16;;;;;;;35.78;18.23;;;3.40;99.90;;;;;;5032044;28;20135;-72
2023/02/16 02:23:30;;;;;;;36.13;19.08;;;3.50;99.90;;;;;;5028611;28;20045;-72
2023/02/16 02:26:04;;;;;;;32.33;18.08;;;3.50;99.90;;;;;;5035112;28;20049;-73
2023/02/16 02:28:44;;;;;;;37.40;19.52;;;3.50;99.90;;;;;;5039493;28;20087;-72
2023/02/16 02:31:36;;;;;;;36.75;18.27;;;3.40;99.90;;;;;;5032861;28;20413;-72
2023/02/16 02:34:20;;;;;;;41.35;18.77;;;3.40;99.90;;;;;;5037009;28;20045;-71
2023/02/16 02:37:07;;;;;;;38.08;19.75;;;3.40;99.90;;;;;;5032677;28;20052;-72
2023/02/16 02:39:54;;;;;;;38.17;19.13;;;3.30;99.90;;;;;;5049468;28;20109;-74
2023/02/16 02:42:45;;;;;;;40.00;19.73;;;3.30;99.90;;;;;;5040079;28;20053;-72
2023/02/16 02:45:18;;;;;;;36.88;19.42;;;3.20;99.90;;;;;;5026508;28;20054;-72
2023/02/16 02:47:46;;;;;;;38.42;18.88;;;3.30;99.90;;;;;;5033026;28;20036;-71
2023/02/16 02:51:27;;;;;;;38.83;18.25;;;3.30;99.90;;;;;;5032899;28;20590;-72
2023/02/16 02:53:28;;;;;;;32.38;18.10;;;3.30;99.90;;;;;;5032529;28;20052;-71
2023/02/16 03:01:25;;;;;;;37.78;19.23;;;3.20;99.90;;;;;;5030210;28;20036;-73
2023/02/16 03:03:55;;;;;;;38.65;20.23;;;3.10;99.90;;;;;;5036570;28;20040;-73
2023/02/16 03:06:26;;;;;;;37.70;18.42;;;3.10;99.90;;;;;;5029265;28;20513;-72
2023/02/16 03:09:06;;;;;;;42.47;19.05;;;3.10;99.90;;;;;;5031553;28;20044;-72
2023/02/16 03:14:25;;;;;;;39.08;18.58;;;2.90;99.90;;;;;;5031255;28;20040;-73
2023/02/16 03:30:47;;;;;;;33.05;17.38;;;2.80;99.90;;;;;;5033561;28;20059;-73
2023/02/16 03:33:13;;;;;;;32.50;18.85;;;2.90;99.90;;;;;;5027891;28;20045;-73
2023/02/16 03:35:39;;;;;;;39.55;18.85;;;2.80;99.90;;;;;;5031414;28;20032;-72
2023/02/16 03:38:05;;;;;;;38.83;19.85;;;2.70;99.90;;;;;;5031899;28;20047;-72
2023/02/16 03:40:33;;;;;;;40.38;20.20;;;2.50;99.90;;;;;;5028756;28;20049;-72
2023/02/16 03:43:02;;;;;;;40.75;19.35;;;2.50;99.90;;;;;;5033943;28;20038;-72
2023/02/16 03:45:29;;;;;;;37.35;20.92;;;2.60;99.90;;;;;;5025792;28;20018;-73
2023/02/16 03:47:55;;;;;;;36.40;18.77;;;2.50;99.90;;;;;;5036380;28;20036;-73
2023/02/16 03:50:21;;;;;;;35.20;18.48;;;2.40;99.90;;;;;;5031714;28;20378;-72
2023/02/16 03:52:46;;;;;;;44.38;21.13;;;2.40;99.90;;;;;;5029451;28;20195;-72
2023/02/16 03:55:12;;;;;;;35.63;18.50;;;2.40;99.90;;;;;;5029321;28;20561;-72
2023/02/16 03:57:38;;;;;;;40.20;19.58;;;2.50;99.90;;;;;;5029293;28;20279;-72
2023/02/16 04:00:04;;;;;;;36.77;18.80;;;2.50;99.90;;;;;;5028401;28;20029;-72
2023/02/16 04:02:30;;;;;;;34.13;18.55;;;2.50;99.90;;;;;;5027306;28;20037;-72
2023/02/16 04:04:55;;;;;;;36.43;18.13;;;2.40;99.90;;;;;;5029176;28;20040;-73
2023/02/16 04:07:21;;;;;;;36.03;18.43;;;2.50;99.90;;;;;;5029016;28;20036;-73
2023/02/16 04:09:46;;;;;;;38.40;19.87;;;2.30;99.90;;;;;;5035232;28;20067;-72
2023/02/16 04:14:56;;;;;;;37.17;17.92;;;2.30;99.90;;;;;;5026377;28;20056;-70
2023/02/16 04:17:22;;;;;;;37.13;18.02;;;2.40;99.90;;;;;;5031601;28;20057;-70
2023/02/16 04:19:48;;;;;;;38.13;18.35;;;2.40;99.90;;;;;;5027496;28;20072;-69
2023/02/16 04:22:14;;;;;;;36.40;19.80;;;2.40;99.90;;;;;;5030860;28;20748;-71
2023/02/16 04:24:39;;;;;;;37.70;20.23;;;2.30;99.90;;;;;;5030477;28;20053;-73
2023/02/16 04:27:05;;;;;;;34.37;19.20;;;2.30;99.90;;;;;;5030025;28;20288;-72
2023/02/16 04:29:31;;;;;;;41.43;19.30;;;2.30;99.90;;;;;;5031875;28;20034;-71
2023/02/16 04:31:56;;;;;;;40.85;19.95;;;2.30;99.90;;;;;;5032162;28;20386;-74
2023/02/16 04:34:22;;;;;;;35.23;17.77;;;2.30;99.90;;;;;;5030588;28;20072;-72
2023/02/16 04:36:47;;;;;;;38.87;18.43;;;2.30;99.90;;;;;;5035482;28;20406;-73
2023/02/16 04:39:13;;;;;;;34.57;19.43;;;2.20;99.90;;;;;;5029324;28;20083;-74
2023/02/16 04:41:39;;;;;;;34.10;17.90;;;2.20;99.90;;;;;;5030920;28;20276;-75
2023/02/16 04:44:05;;;;;;;34.13;18.73;;;2.20;99.90;;;;;;5030784;28;20473;-74
2023/02/16 04:46:30;;;;;;;34.17;19.17;;;2.20;99.90;;;;;;5034898;28;20029;-75
2023/02/16 04:48:56;;;;;;;38.95;19.58;;;2.10;99.90;;;;;;5028834;28;20211;-75
2023/02/16 04:51:22;;;;;;;39.05;20.27;;;2.10;99.90;;;;;;5028154;28;20057;-74
2023/02/16 04:53:48;;;;;;;34.97;19.38;;;2.10;99.90;;;;;;5033926;28;20055;-75
2023/02/16 04:56:14;;;;;;;38.57;21.37;;;2.10;99.90;;;;;;5034664;28;20026;-75
2023/02/16 04:58:40;;;;;;;40.38;20.05;;;2.10;99.90;;;;;;5033837;28;20281;-73
2023/02/16 05:01:06;;;;;;;40.03;19.83;;;2.10;99.90;;;;;;5030209;28;20758;-73
2023/02/16 05:03:32;;;;;;;38.50;19.63;;;2.10;99.90;;;;;;5031225;28;20034;-72
2023/02/16 05:05:58;;;;;;;36.33;19.30;;;2.20;99.90;;;;;;5036448;28;20041;-72
2023/02/16 05:08:23;;;;;;;41.07;22.33;;;2.20;99.90;;;;;;5036314;28;20083;-71
2023/02/16 05:14:40;;;;;;;44.20;21.25;;;2.10;99.90;;;;;;5028438;28;20774;-71
2023/02/16 05:16:20;;;;;;;42.65;22.40;;;2.10;99.90;;;;;;5029153;28;20043;-71
2023/02/16 05:18:46;;;;;;;39.38;19.63;;;2.10;99.90;;;;;;5031531;28;20088;-70
2023/02/16 05:21:30;;;;;;;37.13;19.93;;;2.00;99.90;;;;;;5026607;28;20473;-70
2023/02/16 05:23:59;;;;;;;45.13;20.25;;;2.10;99.90;;;;;;5028274;28;20025;-70
2023/02/16 05:26:25;;;;;;;42.20;20.92;;;2.00;99.90;;;;;;5032669;28;20025;-70
2023/02/16 05:28:51;;;;;;;43.72;22.10;;;2.00;99.90;;;;;;5030590;28;20041;-74
2023/02/16 05:31:17;;;;;;;45.42;21.73;;;2.10;99.90;;;;;;5028103;28;20041;-73
2023/02/16 05:33:42;;;;;;;41.78;21.90;;;2.20;99.90;;;;;;5034594;28;20075;-74
2023/02/16 05:36:08;;;;;;;41.07;21.57;;;2.20;99.90;;;;;;5033430;28;20023;-73
2023/02/16 05:38:34;;;;;;;38.85;21.23;;;2.10;99.90;;;;;;5034394;28;20363;-72
2023/02/16 05:40:59;;;;;;;44.15;20.63;;;2.10;99.90;;;;;;5025619;28;20120;-73
2023/02/16 05:43:25;;;;;;;37.00;20.27;;;2.10;99.90;;;;;;5028313;28;20138;-72
2023/02/16 05:45:51;;;;;;;40.25;21.58;;;2.10;99.90;;;;;;5040284;28;20429;-72
2023/02/16 05:48:17;;;;;;;43.55;21.15;;;2.10;99.90;;;;;;5029140;28;20121;-74
2023/02/16 05:50:42;;;;;;;44.55;20.67;;;2.20;99.90;;;;;;5030303;28;20135;-74
2023/02/16 05:53:08;;;;;;;40.07;21.77;;;2.10;99.90;;;;;;5029415;28;20056;-74
2023/02/16 05:55:34;;;;;;;42.78;21.50;;;2.10;99.90;;;;;;5032593;28;20268;-74
2023/02/16 05:58:00;;;;;;;44.28;21.80;;;2.00;99.90;;;;;;5035563;28;20489;-71
2023/02/16 06:00:26;;;;;;;49.90;22.00;;;2.00;99.90;;;;;;5032993;28;20067;-71
2023/02/16 06:02:52;;;;;;;45.35;23.05;;;2.00;99.90;;;;;;5035087;28;20563;-71
2023/02/16 06:05:17;;;;;;;43.90;21.33;;;2.00;99.90;;;;;;5029412;28;20025;-71
2023/02/16 06:07:44;;;;;;;46.63;23.13;;;2.00;99.90;;;;;;5031445;28;20505;-72
2023/02/16 06:10:10;;;;;;;41.75;23.15;;;2.00;99.90;;;;;;5034738;28;20046;-72
2023/02/16 06:12:35;;;;;;;40.38;20.17;;;2.00;99.90;;;;;;5034845;28;20408;-72
2023/02/16 06:15:01;;;;;;;43.43;22.30;;;2.00;99.90;;;;;;5026874;28;20026;-72
2023/02/16 06:17:27;;;;;;;42.50;21.20;;;2.00;99.90;;;;;;5033325;28;20944;-72
2023/02/16 06:19:53;;;;;;;47.95;22.60;;;1.80;99.90;;;;;;5035620;28;20108;-72
2023/02/16 06:22:19;;;;;;;43.60;22.60;;;1.80;99.90;;;;;;5030796;28;20116;-72
2023/02/16 06:24:45;;;;;;;44.03;22.98;;;1.80;99.90;;;;;;5025532;28;20091;-72
2023/02/16 06:27:11;;;;;;;49.47;23.23;;;1.80;99.90;;;;;;5033676;28;20517;-72
2023/02/16 06:29:36;;;;;;;45.35;22.52;;;1.70;99.90;;;;;;5031225;28;20147;-72
2023/02/16 06:32:03;;;;;;;43.80;19.90;;;1.80;99.90;;;;;;5027722;28;20041;-72
2023/02/16 06:34:29;;;;;;;41.35;21.23;;;1.80;99.90;;;;;;5036045;28;20103;-71
2023/02/16 06:36:55;;;;;;;49.03;24.55;;;1.70;99.90;;;;;;5031949;28;20124;-72
2023/02/16 06:39:20;;;;;;;59.97;22.83;;;1.70;99.90;;;;;;5031473;28;20040;-74
2023/02/16 06:41:46;;;;;;;41.17;21.97;;;1.70;99.90;;;;;;5026120;28;20878;-73
2023/02/16 06:44:14;;;;;;;40.73;21.67;;;1.70;99.90;;;;;;5029613;28;20388;-73
2023/02/16 06:46:45;;;;;;;51.45;23.38;;;1.80;99.90;;;;;;5027436;28;20429;-75
2023/02/16 06:49:16;;;;;;;43.40;21.85;;;1.80;99.90;;;;;;5036598;28;20033;-74
2023/02/16 06:51:43;;;;;;;45.78;24.10;;;1.80;99.90;;;;;;5029866;28;20079;-72
2023/02/16 06:54:08;;;;;;;51.17;24.48;;;1.70;99.90;;;;;;5027264;28;20061;-71
2023/02/16 06:56:34;;;;;;;50.03;22.97;;;1.80;99.90;;;;;;5027030;28;20520;-70
2023/02/16 06:59:01;;;;;;;46.67;23.55;;;1.80;99.90;;;;;;5027770;28;20280;-70
2023/02/16 07:01:27;;;;;;;45.38;22.48;;;1.90;99.90;;;;;;5029562;28;20068;-71
2023/02/16 07:03:54;;;;;;;52.05;23.60;;;1.90;99.90;;;;;;5027564;28;20072;-73
2023/02/16 07:06:21;;;;;;;47.47;21.38;;;1.80;99.90;;;;;;5025740;28;20041;-72
2023/02/16 07:08:47;;;;;;;47.08;23.73;;;1.80;99.90;;;;;;5025753;28;20074;-73
2023/02/16 07:11:13;;;;;;;45.25;21.65;;;1.80;99.90;;;;;;5024441;28;20456;-72
2023/02/16 07:13:39;;;;;;;49.65;23.50;;;1.80;99.90;;;;;;5027853;28;20576;-71
2023/02/16 07:16:05;;;;;;;43.47;22.08;;;1.90;99.90;;;;;;5031801;28;20029;-73
2023/02/16 07:18:31;;;;;;;;;;;1.80;99.90;;;;;;5028222;28;20826;-72
2023/02/16 07:20:57;;;;;;;50.55;22.48;;;1.90;99.90;;;;;;5028403;28;19913;-72
2023/02/16 07:23:23;;;;;;;47.13;22.13;;;2.00;99.90;;;;;;5036543;28;20033;-73
2023/02/16 07:25:48;;;;;;;53.08;27.30;;;2.00;99.90;;;;;;5026114;28;20694;-72
2023/02/16 07:28:14;;;;;;;49.40;25.58;;;2.00;99.90;;;;;;5033715;28;20044;-72
2023/02/16 07:30:40;;;;;;;60.95;26.30;;;2.00;99.90;;;;;;5026134;28;20033;-74
2023/02/16 07:33:06;;;;;;;46.75;24.00;;;2.10;99.90;;;;;;5036548;28;20044;-75
2023/02/16 07:35:32;;;;;;;54.30;26.60;;;2.30;99.90;;;;;;5037355;28;20730;-71
2023/02/16 07:37:58;;;;;;;62.90;28.48;;;2.40;99.90;;;;;;5030052;28;20041;-73
2023/02/16 07:40:24;;;;;;;56.00;26.70;;;2.40;99.90;;;;;;5036273;28;20044;-71
2023/02/16 07:42:49;;;;;;;54.35;26.38;;;2.30;99.90;;;;;;5031004;28;20033;-74
2023/02/16 07:45:15;;;;;;;52.13;26.83;;;2.50;99.90;;;;;;5024987;28;20087;-72
2023/02/16 07:47:41;;;;;;;76.27;32.23;;;2.60;99.90;;;;;;5039110;28;20440;-70
2023/02/16 07:50:07;;;;;;;79.80;28.50;;;2.70;99.90;;;;;;5034877;28;20138;-73
2023/02/16 07:52:33;;;;;;;61.72;27.00;;;2.90;99.90;;;;;;5031864;28;20051;-72
2023/02/16 07:54:59;;;;;;;71.47;28.65;;;2.90;99.90;;;;;;5030407;28;20437;-71
2023/02/16 07:57:26;;;;;;;74.82;30.40;;;3.00;99.90;;;;;;5034660;28;20035;-71
2023/02/16 07:59:52;;;;;;;70.32;30.60;;;3.20;99.90;;;;;;5029532;28;20036;-72
2023/02/16 08:02:18;;;;;;;72.07;29.42;;;3.60;99.90;;;;;;5029457;28;20100;-70
2023/02/16 08:04:44;;;;;;;59.15;27.83;;;4.00;99.90;;;;;;5029130;28;20037;-71
2023/02/16 08:07:17;;;;;;;66.47;27.80;;;6.90;99.90;;;;;;5033407;28;20044;-71
2023/02/16 08:09:43;;;;;;;57.63;25.92;;;9.70;95.50;;;;;;5028631;28;20556;-72
2023/02/16 08:12:10;;;;;;;80.72;30.40;;;11.50;91.30;;;;;;5031403;28;20120;-74
2023/02/16 08:14:36;;;;;;;64.28;29.90;;;12.40;87.50;;;;;;5025783;28;20041;-72
2023/02/16 08:17:03;;;;;;;53.72;26.92;;;13.70;82.80;;;;;;5021785;28;20044;-73
2023/02/16 08:19:29;;;;;;;57.88;22.35;;;13.80;79.60;;;;;;5026359;28;20048;-73
2023/02/16 08:21:54;;;;;;;52.30;22.67;;;13.80;78.60;;;;;;5023542;28;20017;-74
2023/02/16 08:24:20;;;;;;;64.33;22.77;;;14.10;76.70;;;;;;5030402;28;20041;-75
2023/02/16 08:26:51;;;;;;;49.20;24.10;;;14.30;75.90;;;;;;5031163;28;20030;-75
2023/02/16 08:29:18;;;;;;;65.05;23.88;;;13.50;76.90;;;;;;5030996;28;20092;-74
2023/02/16 08:31:45;;;;;;;54.67;21.48;;;12.30;78.60;;;;;;5028532;28;20645;-77
2023/02/16 08:34:13;;;;;;;68.18;25.15;;;12.00;83.00;;;;;;5034187;28;20040;-74
2023/02/16 08:36:40;;;;;;;54.95;22.42;;;10.70;85.90;;;;;;5033811;28;20563;-77
2023/02/16 08:39:10;;;;;;;50.20;23.30;;;9.70;90.60;;;;;;5037903;28;20103;-76
2023/02/16 08:41:37;;;;;;;63.63;25.33;;;8.80;92.60;;;;;;5030016;28;20109;-77
2023/02/16 08:44:04;;;;;;;55.85;27.05;;;8.40;94.10;;;;;;5030717;28;20037;-75
2023/02/16 08:46:32;;;;;;;56.88;25.67;;;8.20;95.90;;;;;;5029960;28;20072;-78
2023/02/16 08:48:59;;;;;;;54.25;23.98;;;9.70;93.90;;;;;;5037494;28;20052;-76
2023/02/16 08:51:27;;;;;;;74.18;25.58;;;9.30;93.20;;;;;;5033654;28;20035;-76
2023/02/16 08:53:53;;;;;;;56.22;24.33;;;10.60;92.90;;;;;;5034954;28;20037;-75
2023/02/16 08:56:18;;;;;;;64.93;25.83;;;12.30;87.60;;;;;;5035496;28;20048;-74
2023/02/16 08:58:45;;;;;;;45.70;22.60;;;13.50;83.60;;;;;;5032589;28;20033;-73
2023/02/16 09:01:11;;;;;;;;;;;13.50;80.10;;;;;;5029627;28;20037;-73
2023/02/16 09:03:42;;;;;;;43.42;22.10;;;13.30;81.80;;;;;;5035121;28;20007;-77
2023/02/16 09:06:11;;;;;;;46.10;23.25;;;13.60;78.70;;;;;;5030479;28;20059;-76
2023/02/16 09:08:37;;;;;;;48.03;23.70;;;16.00;73.30;;;;;;5033833;28;20100;-75
2023/02/16 09:11:04;;;;;;;50.22;23.48;;;16.70;69.60;;;;;;5029217;28;20041;-70
2023/02/16 09:13:31;;;;;;;62.63;23.73;;;17.20;64.60;;;;;;5029365;28;20032;-72
2023/02/16 09:16:28;;;;;;;50.25;24.05;;;17.40;64.60;;;;;;5023197;28;20037;-74
2023/02/16 09:18:54;;;;;;;58.20;23.83;;;18.80;61.30;;;;;;5013592;28;20725;-74
2023/02/16 09:21:24;;;;;;;52.30;23.42;;;18.90;58.30;;;;;;5021023;28;20032;-75
2023/02/16 09:23:53;;;;;;;53.85;23.17;;;20.50;56.60;;;;;;5026062;28;20033;-74
2023/02/16 09:26:21;;;;;;;50.90;22.58;;;21.00;52.40;;;;;;5019867;28;20065;-75
2023/02/16 09:28:49;;;;;;;48.78;23.85;;;20.40;52.70;;;;;;5019676;28;20107;-73
2023/02/16 09:31:24;;;;;;;45.22;22.33;;;20.10;53.50;;;;;;5028453;28;20116;-73
2023/02/16 09:33:51;;;;;;;42.42;22.15;;;19.50;53.90;;;;;;5026563;28;20040;-74
2023/02/16 09:36:17;;;;;;;51.67;23.25;;;20.00;52.40;;;;;;5025779;28;20025;-66
2023/02/16 09:38:43;;;;;;;46.35;22.95;;;19.80;52.90;;;;;;5028460;28;20033;-67
2023/02/16 09:41:51;;;;;;;41.95;22.65;;;18.20;54.80;;;;;;5020383;28;20034;-66
2023/02/16 09:44:36;;;;;;;47.50;22.42;;;16.50;57.10;;;;;;5017739;28;20045;-66
2023/02/16 09:47:08;;;;;;;45.33;23.30;;;15.10;65.90;;;;;;5025335;28;20044;-67
2023/02/16 09:49:42;;;;;;;45.22;22.50;;;14.70;67.90;;;;;;5026640;28;20537;-68
2023/02/16 09:52:20;;;;;;;40.35;23.63;;;14.10;71.30;;;;;;5025638;28;20068;-67
2023/02/16 09:54:52;;;;;;;60.35;25.25;;;13.70;74.60;;;;;;5025707;28;20032;-69
2023/02/16 09:57:45;;;;;;;41.03;23.50;;;13.50;77.80;;;;;;5027100;28;20033;-68
2023/02/16 10:00:17;;;;;;;38.35;21.75;;;13.30;76.10;;;;;;5026789;28;20120;-68
2023/02/16 10:02:49;;;;;;;40.55;21.92;;;13.10;79.30;;;;;;5027704;28;20095;-68
2023/02/16 10:05:44;;;;;;;37.97;22.55;;;12.90;81.10;;;;;;5029430;28;20029;-68
2023/02/16 10:08:28;;;;;;;47.63;22.52;;;12.60;80.00;;;;;;5028380;28;20084;-70
2023/02/16 10:11:36;;;;;;;42.08;23.00;;;12.60;83.80;;;;;;5025849;28;20041;-69
2023/02/16 10:13:59;;;;;;;38.92;22.42;;;12.40;83.60;;;;;;5027332;28;20801;-71
2023/02/16 10:16:33;;;;;;;41.08;23.38;;;12.00;86.70;;;;;;5026325;28;20029;-70
2023/02/16 10:19:06;;;;;;;38.75;23.38;;;12.20;87.40;;;;;;5035674;28;20030;-71
2023/02/16 10:21:32;;;;;;;42.55;24.98;;;12.10;86.50;;;;;;5024449;28;20041;-71
2023/02/16 10:24:04;;;;;;;57.07;25.57;;;11.80;88.30;;;;;;5020431;28;20026;-70
2023/02/16 10:26:31;;;;;;;48.70;24.75;;;11.90;86.90;;;;;;5026609;28;20298;-68
2023/02/16 10:29:18;;;;;;;43.60;24.05;;;12.10;86.30;;;;;;5025674;28;20079;-69
2023/02/16 10:31:55;;;;;;;36.45;20.98;;;11.90;86.50;;;;;;5024357;28;20539;-71
2023/02/16 10:34:30;;;;;;;44.95;23.42;;;12.10;87.20;;;;;;5029445;28;20045;-70
2023/02/16 10:37:02;;;;;;;40.42;22.65;;;12.20;88.20;;;;;;5027455;28;20087;-70
2023/02/16 10:39:46;;;;;;;39.50;20.70;;;12.20;88.60;;;;;;5031921;28;20026;-70
2023/02/16 10:42:15;;;;;;;38.63;21.52;;;12.20;85.90;;;;;;5025667;28;20045;-71
2023/02/16 10:44:53;;;;;;;37.78;21.02;;;12.10;86.80;;;;;;5025086;28;20040;-69
2023/02/16 10:47:40;;;;;;;33.80;20.58;;;12.20;86.20;;;;;;5026972;28;20029;-69
2023/02/16 10:50:28;;;;;;;40.72;22.33;;;12.00;86.40;;;;;;5027354;28;20037;-70
2023/02/16 10:52:59;;;;;;;40.17;21.13;;;11.90;88.20;;;;;;5027903;28;20045;-71
2023/02/16 10:55:25;;;;;;;31.80;19.88;;;12.00;86.90;;;;;;5042077;28;20061;-69
2023/02/16 10:58:00;;;;;;;39.83;21.63;;;11.80;86.80;;;;;;5022379;28;20056;-72
2023/02/16 11:00:35;;;;;;;40.13;21.05;;;11.70;87.60;;;;;;5023622;28;20149;-72
2023/02/16 11:03:02;;;;;;;32.65;18.58;;;11.60;89.60;;;;;;5030469;28;20091;-74
2023/02/16 11:05:37;;;;;;;31.45;19.75;;;11.70;87.90;;;;;;5028712;28;20025;-79
2023/02/16 11:08:05;;;;;;;32.75;19.55;;;11.60;88.40;;;;;;5042041;28;20136;-70
2023/02/16 11:10:47;;;;;;;34.22;19.30;;;11.70;89.30;;;;;;5027812;28;20033;-71
2023/02/16 11:13:34;;;;;;;31.10;18.77;;;11.70;89.50;;;;;;5027225;28;20065;-75
2023/02/16 11:16:09;;;;;;;30.73;18.17;;;11.60;89.60;;;;;;5026475;28;20520;-73
2023/02/16 11:18:40;;;;;;;31.38;17.63;;;11.70;89.30;;;;;;5030726;28;20288;-72
2023/02/16 11:21:08;;;;;;;29.25;16.35;;;11.60;89.30;;;;;;5036341;28;20577;-72
2023/02/16 11:23:39;;;;;;;30.92;18.02;;;11.60;89.80;;;;;;5027886;28;20067;-67
2023/02/16 11:26:10;;;;;;;29.17;16.38;;;11.70;90.00;;;;;;5023067;28;20025;-71
2023/02/16 11:28:37;;;;;;;24.58;15.85;;;11.70;88.20;;;;;;5029030;28;20053;-71
2023/02/16 11:31:10;;;;;;;29.30;16.98;;;11.60;87.60;;;;;;5035479;28;20092;-72
2023/02/16 11:33:39;;;;;;;26.85;16.55;;;11.70;87.60;;;;;;5029314;28;20761;-73
2023/02/16 11:36:28;;;;;;;27.15;16.00;;;11.70;85.70;;;;;;5030387;28;20018;-74
2023/02/16 11:38:58;;;;;;;30.50;16.73;;;11.60;86.30;;;;;;5034390;28;20038;-73
2023/02/16 11:41:25;;;;;;;28.70;17.23;;;11.60;86.10;;;;;;5027451;28;20112;-70
2023/02/16 11:43:52;;;;;;;30.33;17.00;;;11.70;87.20;;;;;;5033195;28;20037;-73
2023/02/16 11:46:20;;;;;;;30.63;17.10;;;11.70;86.90;;;;;;5032790;28;20048;-70
2023/02/16 11:48:46;;;;;;;27.58;15.52;;;11.70;85.30;;;;;;5032951;28;20037;-72
2023/02/16 11:51:14;;;;;;;28.40;15.40;;;11.80;84.70;;;;;;5028882;28;20107;-73
2023/02/16 11:53:42;;;;;;;25.63;15.38;;;11.80;86.20;;;;;;5027974;28;20064;-74
2023/02/16 11:56:26;;;;;;;23.58;14.60;;;11.90;85.30;;;;;;5019398;28;20692;-75
2023/02/16 11:59:17;;;;;;;27.83;15.18;;;12.00;86.60;;;;;;5041289;28;20033;-74
2023/02/16 12:02:12;;;;;;;25.83;15.43;;;12.00;86.20;;;;;;5020132;28;20072;-77
2023/02/16 12:04:57;;;;;;;24.02;15.32;;;12.00;87.40;;;;;;5028740;28;20087;-72
2023/02/16 12:07:57;;;;;;;25.13;15.13;;;12.10;85.50;;;;;;5018752;28;20028;-73
2023/02/16 12:10:38;;;;;;;28.15;16.65;;;12.20;85.00;;;;;;5024444;28;20037;-71
2023/02/16 12:13:12;;;;;;;24.40;15.07;;;12.30;85.50;;;;;;5026591;28;20457;-74
2023/02/16 12:15:45;;;;;;;26.02;15.82;;;12.30;86.40;;;;;;5017913;28;20087;-72
2023/02/16 12:18:25;;;;;;;30.13;17.05;;;12.30;83.30;;;;;;5019892;28;20508;-70
2023/02/16 12:21:10;;;;;;;24.73;14.85;;;12.40;83.50;;;;;;5040728;28;20696;-70
2023/02/16 12:23:43;;;;;;;29.00;14.63;;;12.50;84.20;;;;;;5027597;28;20144;-70
2023/02/16 12:26:08;;;;;;;22.92;14.35;;;12.70;83.30;;;;;;5026934;28;20017;-69
2023/02/16 12:28:46;;;;;;;27.50;16.17;;;12.80;85.50;;;;;;5029774;28;20045;-70
2023/02/16 12:31:36;;;;;;;27.58;14.95;;;12.90;85.00;;;;;;5031960;28;20033;-70
2023/02/16 12:34:20;;;;;;;25.27;15.85;;;12.90;81.20;;;;;;5026375;28;20076;-70
2023/02/16 12:36:52;;;;;;;26.50;15.65;;;13.10;85.10;;;;;;5023953;28;20025;-71
2023/02/16 12:39:32;;;;;;;25.48;15.13;;;13.20;85.60;;;;;;5024691;28;20033;-71
2023/02/16 12:42:23;;;;;;;31.92;16.73;;;13.20;83.10;;;;;;5023606;28;20026;-70
2023/02/16 12:44:55;;;;;;;28.13;16.00;;;13.30;81.90;;;;;;5023749;28;20509;-72
2023/02/16 12:47:36;;;;;;;35.58;17.90;;;13.50;85.10;;;;;;5026332;28;20072;-71
2023/02/16 12:50:06;;;;;;;26.30;15.10;;;13.50;83.50;;;;;;5024783;28;20633;-72
2023/02/16 12:52:55;;;;;;;30.83;16.33;;;13.60;84.40;;;;;;5028247;28;20115;-71
2023/02/16 12:55:29;;;;;;;31.40;16.85;;;13.70;84.70;;;;;;5028443;28;20417;-73
2023/02/16 12:58:07;;;;;;;34.28;17.73;;;13.90;85.30;;;;;;5026933;28;20101;-73
2023/02/16 13:00:54;;;;;;;27.80;15.85;;;13.90;83.60;;;;;;5025053;28;20041;-72
2023/02/16 13:03:43;;;;;;;36.42;17.35;;;13.90;83.10;;;;;;5026467;28;20026;-74
2023/02/16 13:06:42;;;;;;;25.42;15.95;;;14.00;81.70;;;;;;5023311;28;20095;-73
2023/02/16 13:09:33;;;;;;;31.13;15.20;;;14.00;81.60;;;;;;5028952;28;20095;-74
2023/02/16 13:12:14;;;;;;;27.77;16.05;;;14.10;81.50;;;;;;5030510;28;20021;-72
2023/02/16 13:14:42;;;;;;;26.55;14.65;;;14.10;83.20;;;;;;5022425;28;20043;-72
2023/02/16 13:17:48;;;;;;;30.58;16.15;;;14.20;81.80;;;;;;5033605;28;20515;-74
2023/02/16 13:20:20;;;;;;;27.17;14.65;;;14.10;81.00;;;;;;5028989;28;20084;-75
2023/02/16 13:22:49;;;;;;;22.92;15.02;;;14.20;79.20;;;;;;5025517;28;20550;-74
2023/02/16 13:25:36;;;;;;;26.52;15.80;;;14.10;77.90;;;;;;5032302;28;20120;-74
2023/02/16 13:28:23;;;;;;;27.95;16.02;;;14.10;79.80;;;;;;5032941;28;20048;-75
2023/02/16 13:31:16;;;;;;;30.05;14.90;;;14.30;81.20;;;;;;5029552;28;20029;-75
2023/02/16 13:33:51;;;;;;;28.13;14.95;;;14.30;78.50;;;;;;5037710;28;20046;-76
2023/02/16 13:36:51;;;;;;;28.83;16.25;;;14.30;78.40;;;;;;5034912;28;20052;-75